Time;durP1;ratioP1;P1;durP2;ratioP2;P2;SDS_P1;SDS_P2;PMS_P1;PMS_P2;Temp;Humidity;BMP_temperature;BMP_pressure;BME280_temperature;BME280_humidity;BME280_pressure;Samples;Min_cycle;Max_cycle;Signal;HPM_P1;HPM_P2
2022/02/01 00:00:41;;;;;;;1.15;1.15;;;2.50;99.90;;;;;;5060941;28;20201;-86
2022/02/01 00:03:08;;;;;;;2.58;1.95;;;2.40;99.90;;;;;;5061076;28;20263;-84
2022/02/01 00:05:41;;;;;;;1.35;1.00;;;2.40;99.90;;;;;;5061001;28;20935;-85
2022/02/01 00:08:17;;;;;;;3.75;3.35;;;2.40;99.90;;;;;;5065459;28;20202;-85
2022/02/01 00:10:53;;;;;;;2.10;1.90;;;2.40;99.90;;;;;;5080080;28;20228;-86
2022/02/01 00:13:31;;;;;;;0.95;0.90;;;2.40;99.90;;;;;;5081114;28;20241;-85
2022/02/01 00:19:01;;;;;;;2.08;1.15;;;2.40;99.90;;;;;;5079614;28;20616;-86
2022/02/01 00:35:39;;;;;;;1.05;1.05;;;2.30;99.90;;;;;;5077718;28;20251;-86
2022/02/01 00:38:15;;;;;;;1.55;1.45;;;2.30;99.90;;;;;;5080858;28;20203;-86
2022/02/01 00:40:52;;;;;;;1.00;0.82;;;2.30;99.90;;;;;;5081786;28;20243;-86
2022/02/01 00:43:19;;;;;;;0.80;0.80;;;2.30;99.90;;;;;;5081965;28;20229;-85
2022/02/01 00:45:46;;;;;;;1.25;1.15;;;2.30;99.90;;;;;;5068232;28;20202;-86
2022/02/01 00:48:13;;;;;;;1.95;1.55;;;2.20;99.90;;;;;;5071003;28;20202;-85
2022/02/01 00:50:40;;;;;;;1.40;1.40;;;2.30;99.90;;;;;;5081174;28;20241;-86
2022/02/01 00:53:07;;;;;;;1.38;1.27;;;2.30;99.90;;;;;;5081291;28;20226;-84
2022/02/01 00:55:34;;;;;;;19.05;1.45;;;2.20;99.90;;;;;;5081801;28;20207;-86
2022/02/01 00:58:02;;;;;;;2.33;1.67;;;2.10;99.90;;;;;;5079477;28;20207;-86
2022/02/01 01:00:29;;;;;;;1.90;1.88;;;2.00;99.90;;;;;;5077965;28;20690;-87
2022/02/01 01:02:55;;;;;;;2.00;1.25;;;1.80;99.90;;;;;;5061644;28;20235;-85
2022/02/01 01:05:22;;;;;;;1.48;1.38;;;1.70;99.90;;;;;;5060929;28;20213;-87
2022/02/01 01:07:49;;;;;;;1.73;1.33;;;1.80;99.90;;;;;;5056747;28;20207;-85
2022/02/01 01:10:16;;;;;;;3.00;1.80;;;1.80;99.90;;;;;;5055981;28;20227;-86
2022/02/01 01:13:02;;;;;;;1.27;1.05;;;1.80;99.90;;;;;;5057965;28;20217;-85
2022/02/01 01:15:35;;;;;;;8.32;1.30;;;1.80;99.90;;;;;;5075772;28;20268;-87
2022/02/01 01:18:36;;;;;;;3.60;2.15;;;1.90;99.90;;;;;;5074263;28;20296;-83
2022/02/01 01:46:02;;;;;;;1.15;1.05;;;2.20;99.90;;;;;;5079154;28;20228;-85
2022/02/01 01:54:08;;;;;;;2.53;1.48;;;2.20;99.90;;;;;;5076083;28;20355;-86
2022/02/01 01:56:37;;;;;;;2.88;1.65;;;2.30;99.90;;;;;;5078874;28;20224;-84
2022/02/01 01:59:07;;;;;;;3.10;2.15;;;2.30;99.90;;;;;;5079638;28;20660;-85
2022/02/01 02:01:39;;;;;;;3.80;1.60;;;2.30;99.90;;;;;;5079948;28;20203;-86
2022/02/01 02:04:08;;;;;;;0.93;0.93;;;2.20;99.90;;;;;;5081612;28;20234;-86
2022/02/01 02:06:37;;;;;;;6.80;1.33;;;2.20;99.90;;;;;;5080869;28;20213;-84
2022/02/01 02:09:06;;;;;;;2.00;1.15;;;2.20;99.90;;;;;;5080446;28;20250;-84
2022/02/01 02:11:41;;;;;;;5.22;1.70;;;2.20;99.90;;;;;;5084685;28;20210;-85
2022/02/01 02:14:21;;;;;;;5.55;2.05;;;2.20;99.90;;;;;;5070047;28;20267;-85
2022/02/01 02:16:51;;;;;;;2.38;1.77;;;2.20;99.90;;;;;;5064052;28;20575;-85
2022/02/01 02:19:20;;;;;;;2.97;2.17;;;2.20;99.90;;;;;;5064854;28;20202;-85
2022/02/01 02:21:51;;;;;;;2.30;2.15;;;2.10;99.90;;;;;;5064579;28;20713;-84
2022/02/01 02:24:18;;;;;;;3.03;0.98;;;2.10;99.90;;;;;;5063854;28;20230;-84
2022/02/01 02:26:46;;;;;;;8.60;3.33;;;2.20;99.90;;;;;;5066125;28;20742;-85
2022/02/01 02:29:13;;;;;;;4.78;3.58;;;2.10;99.90;;;;;;5065907;28;20267;-85
2022/02/01 02:31:40;;;;;;;5.68;2.13;;;2.10;99.90;;;;;;5062535;28;20207;-84
2022/02/01 02:34:12;;;;;;;5.60;1.60;;;2.10;99.90;;;;;;5062254;28;20238;-85
2022/02/01 02:36:44;;;;;;;1.85;1.02;;;2.00;99.90;;;;;;5063456;28;20207;-86
2022/02/01 02:39:24;;;;;;;3.35;1.83;;;2.00;99.90;;;;;;5062352;28;20275;-86
2022/02/01 02:42:07;;;;;;;3.50;1.58;;;2.00;99.90;;;;;;5062838;28;20213;-87
2022/02/01 02:47:19;;;;;;;1.95;1.85;;;2.00;99.90;;;;;;5063571;28;20376;-86
2022/02/01 02:49:46;;;;;;;1.25;1.20;;;2.00;99.90;;;;;;5067688;28;20217;-84
2022/02/01 02:52:13;;;;;;;2.45;1.67;;;2.00;99.90;;;;;;5082288;28;20215;-86
2022/02/01 02:54:41;;;;;;;2.40;2.20;;;2.00;99.90;;;;;;5082296;28;20231;-84
2022/02/01 02:57:08;;;;;;;3.85;2.60;;;2.00;99.90;;;;;;5082720;28;20205;-83
2022/02/01 02:59:37;;;;;;;4.72;2.05;;;2.00;99.90;;;;;;5081162;28;20216;-85
2022/02/01 03:02:04;;;;;;;6.03;2.40;;;2.00;99.90;;;;;;5080477;28;20204;-86
2022/02/01 03:04:33;;;;;;;6.57;2.40;;;2.00;99.90;;;;;;5080808;28;20627;-85
2022/02/01 03:07:02;;;;;;;3.47;1.67;;;2.00;99.90;;;;;;5081033;28;20200;-86
2022/02/01 03:09:30;;;;;;;1.90;0.85;;;1.90;99.90;;;;;;5083535;28;20229;-85
2022/02/01 03:12:00;;;;;;;9.82;3.67;;;1.80;99.90;;;;;;5082222;28;20742;-84
2022/02/01 03:14:46;;;;;;;11.00;2.53;;;1.90;99.90;;;;;;5078749;28;20637;-85
2022/02/01 03:17:20;;;;;;;2.08;1.95;;;1.90;99.90;;;;;;5056887;28;20230;-84
2022/02/01 03:19:49;;;;;;;9.90;3.63;;;1.90;99.90;;;;;;5061481;28;20201;-85
2022/02/01 03:22:17;;;;;;;5.88;2.80;;;1.90;99.90;;;;;;5059605;28;20202;-85
2022/02/01 03:24:45;;;;;;;4.45;2.33;;;1.90;99.90;;;;;;5063428;28;20264;-85
2022/02/01 03:27:13;;;;;;;3.38;1.65;;;1.90;99.90;;;;;;5067983;28;20206;-83
2022/02/01 03:29:40;;;;;;;10.05;2.45;;;1.90;99.90;;;;;;5083862;28;20222;-85
2022/02/01 03:32:08;;;;;;;1.27;1.17;;;1.90;99.90;;;;;;5082789;28;20201;-86
2022/02/01 03:34:35;;;;;;;2.42;2.22;;;1.90;99.90;;;;;;5082628;28;20735;-85
2022/02/01 03:37:01;;;;;;;11.45;3.20;;;1.90;99.90;;;;;;5082566;28;20202;-85
2022/02/01 03:39:29;;;;;;;1.77;1.42;;;2.00;99.90;;;;;;5081511;28;20228;-85
2022/02/01 03:41:56;;;;;;;7.47;3.38;;;1.90;99.90;;;;;;5082928;28;20202;-85
2022/02/01 03:44:25;;;;;;;5.57;1.40;;;2.00;99.90;;;;;;5080461;28;20243;-86
2022/02/01 03:47:01;;;;;;;3.42;2.20;;;2.00;99.90;;;;;;5082252;28;20217;-85
2022/02/01 03:49:29;;;;;;;11.63;2.28;;;2.00;99.90;;;;;;5080297;28;20566;-86
2022/02/01 03:51:58;;;;;;;2.53;1.50;;;2.00;99.90;;;;;;5080250;28;20209;-87
2022/02/01 03:54:27;;;;;;;5.38;2.55;;;2.00;99.90;;;;;;5082075;28;20242;-87
2022/02/01 03:56:54;;;;;;;1.60;0.75;;;2.00;99.90;;;;;;5083052;28;20212;-87
2022/02/01 03:59:22;;;;;;;3.75;2.08;;;1.90;99.90;;;;;;5080859;28;20202;-87
2022/02/01 04:01:53;;;;;;;4.15;3.45;;;2.00;99.90;;;;;;5082876;28;20206;-85
2022/02/01 04:04:20;;;;;;;3.63;1.65;;;2.00;99.90;;;;;;5082704;28;20258;-84
2022/02/01 04:06:48;;;;;;;3.25;1.73;;;2.00;99.90;;;;;;5082441;28;20211;-85
2022/02/01 04:09:14;;;;;;;6.30;2.13;;;2.00;99.90;;;;;;5080858;28;20277;-85
2022/02/01 04:11:41;;;;;;;2.90;1.77;;;2.00;99.90;;;;;;5080793;28;20203;-85
2022/02/01 04:14:08;;;;;;;8.48;1.83;;;2.00;99.90;;;;;;5081447;28;20223;-83
2022/02/01 04:16:35;;;;;;;1.75;1.50;;;2.00;99.90;;;;;;5081642;28;20217;-85
2022/02/01 04:19:05;;;;;;;5.75;2.42;;;2.00;99.90;;;;;;5078354;28;20204;-85
2022/02/01 04:21:31;;;;;;;7.97;3.13;;;2.00;99.90;;;;;;5062153;28;20206;-86
2022/02/01 04:23:58;;;;;;;7.65;2.20;;;2.00;99.90;;;;;;5061663;28;20235;-84
2022/02/01 04:26:25;;;;;;;2.22;0.90;;;2.00;99.90;;;;;;5062226;28;20205;-85
2022/02/01 04:28:52;;;;;;;4.97;1.95;;;2.00;99.90;;;;;;5062160;28;20225;-85
2022/02/01 04:31:18;;;;;;;4.82;2.13;;;2.00;99.90;;;;;;5065303;28;20230;-84
2022/02/01 04:33:45;;;;;;;8.52;2.47;;;2.00;99.90;;;;;;5081807;28;20234;-85
2022/02/01 04:36:13;;;;;;;2.60;1.50;;;2.00;99.90;;;;;;5081605;28;20204;-85
2022/02/01 04:38:45;;;;;;;6.38;2.67;;;2.00;99.90;;;;;;5082404;28;20303;-86
2022/02/01 04:41:12;;;;;;;8.18;1.83;;;2.00;99.90;;;;;;5081323;28;20205;-85
2022/02/01 04:43:39;;;;;;;5.72;1.65;;;2.00;99.90;;;;;;5080727;28;20225;-85
2022/02/01 04:46:08;;;;;;;2.55;2.45;;;1.90;99.90;;;;;;5080660;28;20206;-85
2022/02/01 04:48:36;;;;;;;1.35;1.25;;;2.00;99.90;;;;;;5080375;28;20278;-85
2022/02/01 04:51:02;;;;;;;6.80;2.47;;;1.90;99.90;;;;;;5080302;28;20237;-85
2022/02/01 04:53:31;;;;;;;10.45;3.38;;;1.90;99.90;;;;;;5079782;28;20228;-86
2022/02/01 04:55:57;;;;;;;4.80;1.60;;;1.90;99.90;;;;;;5079922;28;20204;-85
2022/02/01 04:58:25;;;;;;;4.13;1.65;;;1.90;99.90;;;;;;5080522;28;20205;-85
2022/02/01 05:00:53;;;;;;;8.35;1.73;;;1.90;99.90;;;;;;5079245;28;20197;-86
2022/02/01 05:03:20;;;;;;;5.60;1.77;;;1.90;99.90;;;;;;5079157;28;20234;-85
2022/02/01 05:05:47;;;;;;;2.08;1.88;;;1.80;99.90;;;;;;5079573;28;20203;-86
2022/02/01 05:08:14;;;;;;;5.88;2.35;;;1.80;99.90;;;;;;5073061;28;20597;-84
2022/02/01 05:10:42;;;;;;;6.63;3.45;;;1.80;99.90;;;;;;5059091;28;20252;-85
2022/02/01 05:16:03;;;;;;;4.72;2.40;;;1.80;99.90;;;;;;5076916;28;20259;-85
2022/02/01 05:18:33;;;;;;;10.32;1.73;;;1.80;99.90;;;;;;5078698;28;20249;-83
2022/02/01 05:21:05;;;;;;;2.25;1.38;;;1.70;99.90;;;;;;5078596;28;20210;-84
2022/02/01 05:23:31;;;;;;;8.27;3.63;;;1.70;99.90;;;;;;5079471;28;20850;-85
2022/02/01 05:26:00;;;;;;;8.18;1.38;;;1.80;99.90;;;;;;5080237;28;20205;-85
2022/02/01 05:28:27;;;;;;;2.95;1.77;;;1.70;99.90;;;;;;5070851;28;20280;-85
2022/02/01 05:30:58;;;;;;;2.95;2.75;;;1.70;99.90;;;;;;5059040;28;20233;-85
2022/02/01 05:33:25;;;;;;;4.70;1.73;;;1.70;99.90;;;;;;5059206;28;20232;-85
2022/02/01 05:35:52;;;;;;;6.00;2.80;;;1.80;99.90;;;;;;5058519;28;20726;-84
2022/02/01 05:38:19;;;;;;;4.35;1.50;;;1.70;99.90;;;;;;5058629;28;20225;-85
2022/02/01 05:40:46;;;;;;;4.13;1.75;;;1.70;99.90;;;;;;5066736;28;20233;-85
2022/02/01 05:43:19;;;;;;;6.85;2.50;;;1.70;99.90;;;;;;5078912;28;20237;-84
2022/02/01 05:45:46;;;;;;;2.65;1.20;;;1.80;99.90;;;;;;5082117;28;20206;-85
2022/02/01 05:48:13;;;;;;;17.73;2.88;;;1.80;99.90;;;;;;5083501;28;20214;-84
2022/02/01 05:50:41;;;;;;;2.92;1.52;;;1.70;99.90;;;;;;5082811;28;20226;-86
2022/02/01 05:53:08;;;;;;;8.00;3.15;;;1.70;99.90;;;;;;5084029;28;20608;-85
2022/02/01 05:55:36;;;;;;;4.63;2.33;;;1.70;99.90;;;;;;5084552;28;20209;-83
2022/02/01 05:58:03;;;;;;;9.60;1.58;;;1.70;99.90;;;;;;5084212;28;20235;-85
2022/02/01 06:00:32;;;;;;;3.75;2.78;;;1.70;99.90;;;;;;5083614;28;20212;-85
2022/02/01 06:02:59;;;;;;;6.05;1.77;;;1.70;99.90;;;;;;5084024;28;20228;-82
2022/02/01 06:05:26;;;;;;;5.75;3.65;;;1.70;99.90;;;;;;5079561;28;20252;-82
2022/02/01 06:07:53;;;;;;;2.70;1.27;;;1.70;99.90;;;;;;5079183;28;20204;-82
2022/02/01 06:10:20;;;;;;;9.88;2.17;;;1.60;99.90;;;;;;5079454;28;20228;-82
2022/02/01 06:12:48;;;;;;;3.13;2.00;;;1.70;99.90;;;;;;5074038;28;20233;-82
2022/02/01 06:15:17;;;;;;;7.28;2.00;;;1.70;99.90;;;;;;5059258;28;20215;-82
2022/02/01 06:17:45;;;;;;;5.30;2.08;;;1.60;99.90;;;;;;5059415;28;20257;-82
2022/02/01 06:20:13;;;;;;;9.48;3.50;;;1.60;99.90;;;;;;5058865;28;20213;-83
2022/02/01 06:22:40;;;;;;;2.92;1.50;;;1.60;99.90;;;;;;5065543;28;20230;-83
2022/02/01 06:25:08;;;;;;;4.80;2.05;;;1.60;99.90;;;;;;5079269;28;20400;-83
2022/02/01 06:27:35;;;;;;;5.82;3.45;;;1.70;99.90;;;;;;5070343;28;20201;-83
2022/02/01 06:30:02;;;;;;;5.50;2.20;;;1.70;99.90;;;;;;5078964;28;20226;-83
2022/02/01 06:32:32;;;;;;;7.15;2.30;;;1.80;99.90;;;;;;5078896;28;20205;-83
2022/02/01 06:35:01;;;;;;;4.22;3.40;;;1.80;99.90;;;;;;5079044;28;20731;-83
2022/02/01 06:37:27;;;;;;;5.65;3.45;;;1.80;99.90;;;;;;5079351;28;20209;-82
2022/02/01 06:39:54;;;;;;;5.75;2.85;;;1.90;99.90;;;;;;5078960;28;20210;-82
2022/02/01 06:42:21;;;;;;;3.03;1.95;;;2.00;99.90;;;;;;5078526;28;20218;-83
2022/02/01 06:44:48;;;;;;;8.90;2.92;;;2.00;99.90;;;;;;5075385;28;20206;-82
2022/02/01 06:47:14;;;;;;;3.33;2.25;;;1.90;99.90;;;;;;5061859;28;20210;-81
2022/02/01 06:49:42;;;;;;;5.43;2.05;;;1.90;99.90;;;;;;5064394;28;20248;-81
2022/02/01 06:52:10;;;;;;;8.02;3.42;;;1.80;99.90;;;;;;5064892;28;20223;-81
2022/02/01 06:54:37;;;;;;;6.35;1.92;;;1.80;99.90;;;;;;5064647;28;20603;-83
2022/02/01 06:57:04;;;;;;;5.90;2.05;;;1.90;99.90;;;;;;5062427;28;20228;-82
2022/02/01 06:59:31;;;;;;;5.35;3.08;;;1.90;99.90;;;;;;5063862;28;20202;-82
2022/02/01 07:01:58;;;;;;;8.40;1.70;;;2.00;99.90;;;;;;5062353;28;20210;-82
2022/02/01 07:04:24;;;;;;;7.55;2.28;;;2.00;99.90;;;;;;5058505;28;20632;-82
2022/02/01 07:06:51;;;;;;;11.73;3.20;;;2.00;99.90;;;;;;5058179;28;20206;-82
2022/02/01 07:09:21;;;;;;;11.30;3.17;;;1.90;99.90;;;;;;5059019;28;20303;-82
2022/02/01 07:11:48;;;;;;;11.23;3.58;;;2.00;99.90;;;;;;5058283;28;20225;-82
2022/02/01 07:14:15;;;;;;;6.57;2.70;;;1.90;99.90;;;;;;5058266;28;20233;-82
2022/02/01 07:16:41;;;;;;;3.33;1.92;;;1.90;99.90;;;;;;5058537;28;20216;-85
2022/02/01 07:19:08;;;;;;;7.00;2.30;;;2.00;99.90;;;;;;5060579;28;20206;-81
2022/02/01 07:21:35;;;;;;;4.60;2.20;;;2.00;99.90;;;;;;5065486;28;20189;-81
2022/02/01 07:24:04;;;;;;;8.88;2.35;;;2.00;99.90;;;;;;5079736;28;20266;-82
2022/02/01 07:26:33;;;;;;;8.57;2.90;;;2.00;99.90;;;;;;5084930;28;20229;-81
2022/02/01 07:29:00;;;;;;;2.97;2.40;;;2.10;99.90;;;;;;5078602;28;20392;-81
2022/02/01 07:31:26;;;;;;;2.50;1.73;;;2.10;99.90;;;;;;5072438;28;20283;-81
2022/02/01 07:33:53;;;;;;;6.25;3.20;;;2.10;99.90;;;;;;5073726;28;20246;-81
2022/02/01 07:36:20;;;;;;;4.35;2.50;;;2.10;99.90;;;;;;5073639;28;20204;-81
2022/02/01 07:38:47;;;;;;;6.30;2.83;;;2.10;99.90;;;;;;5073915;28;20309;-81
2022/02/01 07:41:13;;;;;;;2.38;1.63;;;2.10;99.90;;;;;;5070732;28;20205;-82
2022/02/01 07:43:42;;;;;;;5.38;2.80;;;2.10;99.90;;;;;;5074979;28;20419;-82
2022/02/01 07:46:13;;;;;;;5.28;1.88;;;2.20;99.90;;;;;;5069621;28;20201;-82
2022/02/01 07:48:40;;;;;;;6.05;2.00;;;2.20;99.90;;;;;;5073252;28;20201;-82
2022/02/01 07:51:07;;;;;;;12.05;2.55;;;2.30;99.90;;;;;;5068633;28;20218;-82
2022/02/01 07:53:33;;;;;;;9.50;2.42;;;2.30;99.90;;;;;;5065347;28;20229;-83
2022/02/01 07:56:00;;;;;;;3.33;2.00;;;2.20;99.90;;;;;;5079426;28;20219;-84
2022/02/01 07:58:27;;;;;;;10.57;2.40;;;2.30;99.90;;;;;;5066706;28;20677;-82
2022/02/01 08:00:55;;;;;;;4.97;2.83;;;2.30;99.90;;;;;;5077529;28;20204;-82
2022/02/01 08:03:22;;;;;;;3.40;2.70;;;2.30;99.90;;;;;;5058128;28;20238;-82
2022/02/01 08:05:48;;;;;;;5.00;2.95;;;2.40;99.90;;;;;;5058563;28;20208;-82
2022/02/01 08:08:15;;;;;;;7.30;2.83;;;2.50;99.90;;;;;;5058097;28;20214;-81
2022/02/01 08:10:48;;;;;;;4.35;2.13;;;2.60;99.90;;;;;;5080440;28;20248;-85
2022/02/01 08:19:02;;;;;;;5.45;2.78;;;2.70;99.90;;;;;;5072526;28;20287;-81
2022/02/01 08:21:29;;;;;;;8.55;2.50;;;2.80;99.90;;;;;;5069314;28;20269;-81
2022/02/01 08:23:56;;;;;;;5.68;2.78;;;3.00;99.90;;;;;;5084807;28;20228;-81
2022/02/01 08:26:27;;;;;;;4.47;2.80;;;3.00;99.90;;;;;;5085601;28;20263;-81
2022/02/01 08:28:53;;;;;;;2.88;2.38;;;3.00;99.90;;;;;;5084967;28;20451;-81
2022/02/01 08:31:21;;;;;;;12.23;2.65;;;3.00;99.90;;;;;;5084640;28;20265;-80
2022/02/01 08:33:49;;;;;;;5.47;2.40;;;2.90;99.90;;;;;;5076298;28;20227;-81
2022/02/01 08:36:15;;;;;;;6.20;2.60;;;3.00;99.90;;;;;;5080020;28;20209;-80
2022/02/01 08:38:42;;;;;;;7.18;2.92;;;3.00;99.90;;;;;;5074932;28;20210;-82
2022/02/01 08:41:09;;;;;;;4.30;3.30;;;2.90;99.90;;;;;;5082169;28;20574;-83
2022/02/01 08:43:35;;;;;;;6.43;2.95;;;3.00;99.90;;;;;;5084271;28;20231;-82
2022/02/01 08:46:02;;;;;;;2.20;2.00;;;2.90;99.90;;;;;;5086322;28;20203;-80
2022/02/01 08:48:32;;;;;;;10.43;4.18;;;2.70;99.90;;;;;;5082961;28;20209;-84
2022/02/01 08:51:04;;;;;;;3.70;2.47;;;2.70;99.90;;;;;;5080708;28;20227;-80
2022/02/01 08:53:43;;;;;;;5.32;1.92;;;2.70;99.90;;;;;;5087129;28;20242;-84
2022/02/01 08:57:20;;;;;;;8.18;4.18;;;2.90;99.90;;;;;;5083718;28;20620;-85
2022/02/01 08:58:57;;;;;;;17.30;3.75;;;2.90;99.90;;;;;;5080067;28;20208;-82
2022/02/01 09:01:24;;;;;;;4.63;3.15;;;2.90;99.90;;;;;;5077939;28;20658;-82
2022/02/01 09:03:52;;;;;;;3.17;2.97;;;3.00;99.90;;;;;;5084783;28;20245;-82
2022/02/01 09:06:22;;;;;;;3.03;2.60;;;3.10;99.90;;;;;;5086334;28;20219;-81
2022/02/01 09:08:49;;;;;;;3.75;2.15;;;3.00;99.90;;;;;;5086379;28;20208;-82
2022/02/01 09:11:16;;;;;;;2.40;1.33;;;3.00;99.90;;;;;;5085784;28;20223;-83
2022/02/01 09:13:43;;;;;;;4.35;2.30;;;3.00;99.90;;;;;;5086653;28;20231;-82
2022/02/01 09:16:10;;;;;;;3.15;2.83;;;3.00;99.90;;;;;;5088519;28;20270;-82
2022/02/01 09:18:37;;;;;;;2.75;2.35;;;2.90;99.90;;;;;;5088064;28;20206;-83
2022/02/01 09:21:08;;;;;;;2.53;2.33;;;2.90;99.90;;;;;;5088900;28;20210;-84
2022/02/01 09:23:35;;;;;;;2.92;1.70;;;3.00;99.90;;;;;;5089743;28;20229;-84
2022/02/01 09:26:02;;;;;;;10.77;3.03;;;3.00;99.90;;;;;;5093711;28;20209;-85
2022/02/01 09:28:28;;;;;;;5.20;1.90;;;3.00;99.90;;;;;;5091182;28;20198;-82
2022/02/01 09:30:55;;;;;;;3.13;1.98;;;3.10;99.90;;;;;;5087814;28;20206;-83
2022/02/01 09:33:22;;;;;;;4.35;2.60;;;3.00;99.90;;;;;;5091028;28;20224;-82
2022/02/01 09:35:49;;;;;;;8.07;2.72;;;3.10;99.90;;;;;;5090650;28;20195;-81
2022/02/01 09:38:18;;;;;;;11.50;2.10;;;3.10;99.90;;;;;;5090032;28;20197;-82
2022/02/01 09:40:45;;;;;;;1.67;1.58;;;3.00;99.90;;;;;;5088952;28;20685;-83
2022/02/01 09:43:12;;;;;;;5.05;1.90;;;3.20;99.90;;;;;;5089833;28;20291;-83
2022/02/01 09:45:39;;;;;;;1.65;1.55;;;3.30;99.90;;;;;;5090192;28;20199;-81
2022/02/01 09:48:06;;;;;;;2.25;2.05;;;3.40;99.90;;;;;;5088490;28;20199;-81
2022/02/01 09:50:33;;;;;;;6.00;1.75;;;3.50;99.90;;;;;;5088259;28;20585;-82
2022/02/01 09:53:00;;;;;;;2.05;1.30;;;3.60;99.90;;;;;;5094254;28;20218;-82
2022/02/01 09:55:29;;;;;;;3.05;1.77;;;3.60;99.90;;;;;;5096155;28;20215;-81
2022/02/01 09:57:57;;;;;;;3.70;1.70;;;3.60;99.90;;;;;;5088334;28;20216;-81
2022/02/01 10:00:33;;;;;;;3.50;1.70;;;3.60;99.90;;;;;;5088092;28;20207;-81
2022/02/01 10:03:00;;;;;;;2.30;2.10;;;3.70;99.90;;;;;;5089330;28;20235;-82
2022/02/01 10:05:27;;;;;;;3.88;2.67;;;3.80;99.90;;;;;;5089514;28;20211;-82
2022/02/01 10:07:55;;;;;;;5.18;2.25;;;3.80;99.90;;;;;;5088480;28;20208;-82
2022/02/01 10:10:24;;;;;;;3.95;1.92;;;3.80;99.90;;;;;;5089299;28;20196;-82
2022/02/01 10:13:00;;;;;;;5.40;1.95;;;3.80;99.90;;;;;;5090041;28;20232;-82
2022/02/01 10:15:28;;;;;;;1.45;1.35;;;3.70;99.90;;;;;;5090659;28;20207;-82
2022/02/01 10:18:01;;;;;;;4.13;2.20;;;3.70;99.90;;;;;;5089002;28;20222;-81
2022/02/01 10:20:37;;;;;;;2.55;1.88;;;3.70;99.90;;;;;;5086355;28;20204;-83
2022/02/01 10:23:24;;;;;;;3.05;2.75;;;3.70;99.90;;;;;;5087557;28;20227;-83
2022/02/01 10:26:03;;;;;;;3.45;2.00;;;3.80;99.90;;;;;;5088199;28;20263;-81
2022/02/01 10:28:49;;;;;;;2.33;1.52;;;3.90;99.90;;;;;;5087211;28;20201;-83
2022/02/01 10:31:20;;;;;;;2.55;1.83;;;4.00;99.90;;;;;;5087528;28;20680;-82
2022/02/01 10:34:14;;;;;;;2.25;1.25;;;4.00;99.90;;;;;;5087895;28;20282;-83
2022/02/01 10:36:41;;;;;;;3.15;1.60;;;3.90;99.90;;;;;;5089058;28;20272;-82
2022/02/01 10:39:21;;;;;;;1.10;1.00;;;3.90;99.90;;;;;;5085929;28;20211;-81
2022/02/01 10:41:59;;;;;;;1.42;1.33;;;4.00;99.90;;;;;;5086352;28;20205;-82
2022/02/01 10:44:38;;;;;;;2.05;1.25;;;4.00;99.90;;;;;;5088822;28;20225;-82
2022/02/01 10:47:07;;;;;;;1.58;1.48;;;4.10;99.90;;;;;;5088974;28;20196;-81
2022/02/01 10:49:35;;;;;;;3.42;1.92;;;4.10;99.90;;;;;;5090071;28;20212;-81
2022/02/01 10:52:07;;;;;;;2.05;1.25;;;4.10;99.90;;;;;;5088785;28;20232;-82
2022/02/01 10:54:34;;;;;;;2.63;1.65;;;3.90;99.90;;;;;;5088694;28;20229;-81
2022/02/01 10:57:03;;;;;;;1.40;1.15;;;3.90;99.90;;;;;;5086206;28;20236;-81
2022/02/01 10:59:32;;;;;;;3.55;1.65;;;3.80;99.90;;;;;;5086120;28;20205;-81
2022/02/01 11:02:00;;;;;;;4.28;1.80;;;3.70;99.90;;;;;;5087958;28;20207;-82
2022/02/01 11:04:29;;;;;;;4.72;1.40;;;3.70;99.90;;;;;;5087615;28;20241;-81
2022/02/01 11:06:56;;;;;;;4.07;1.63;;;3.80;99.90;;;;;;5087780;28;20212;-82
2022/02/01 11:09:24;;;;;;;1.10;1.10;;;3.90;99.90;;;;;;5088417;28;20203;-80
2022/02/01 11:11:52;;;;;;;1.48;1.38;;;3.90;99.90;;;;;;5086170;28;20236;-83
2022/02/01 11:14:47;;;;;;;2.30;1.45;;;4.00;99.90;;;;;;5082403;28;20228;-87
2022/02/01 11:17:16;;;;;;;5.60;3.10;;;4.20;99.90;;;;;;5085178;28;20199;-82
2022/02/01 11:19:47;;;;;;;3.17;1.40;;;3.90;99.90;;;;;;5075285;28;20294;-81
2022/02/01 11:22:23;;;;;;;1.48;1.38;;;4.10;99.90;;;;;;5087117;28;20219;-81
2022/02/01 11:24:55;;;;;;;2.05;1.05;;;4.00;99.90;;;;;;5086849;28;20682;-83
2022/02/01 11:27:33;;;;;;;1.65;1.45;;;4.00;99.90;;;;;;5086766;28;20216;-81
2022/02/01 11:30:14;;;;;;;2.15;1.95;;;4.00;99.90;;;;;;5086249;28;20201;-81
2022/02/01 11:32:51;;;;;;;2.45;2.03;;;4.00;99.90;;;;;;5083374;28;20236;-81
2022/02/01 11:35:24;;;;;;;1.70;1.50;;;4.10;99.90;;;;;;5081643;28;20228;-82
2022/02/01 11:37:55;;;;;;;1.45;1.35;;;4.10;99.90;;;;;;5085542;28;20201;-80
2022/02/01 11:40:23;;;;;;;3.63;1.60;;;3.90;99.90;;;;;;5085838;28;20197;-83
2022/02/01 11:43:00;;;;;;;1.85;1.65;;;4.00;99.90;;;;;;5085938;28;20583;-85
2022/02/01 11:45:31;;;;;;;7.95;1.88;;;4.00;99.90;;;;;;5087445;28;20807;-82
2022/02/01 11:48:00;;;;;;;7.25;1.70;;;4.10;99.90;;;;;;5064252;28;20210;-83
2022/02/01 11:50:27;;;;;;;4.55;1.85;;;4.00;99.90;;;;;;5081353;28;20206;-80
2022/02/01 11:52:57;;;;;;;1.67;1.45;;;4.00;99.90;;;;;;5084477;28;20243;-82
2022/02/01 11:55:29;;;;;;;4.97;2.03;;;4.00;99.90;;;;;;5083208;28;20215;-80
2022/02/01 11:58:02;;;;;;;2.85;2.65;;;3.80;99.90;;;;;;5084060;28;20207;-83
2022/02/01 12:00:36;;;;;;;1.38;1.30;;;3.60;99.90;;;;;;5085617;28;20637;-83
2022/02/01 12:03:03;;;;;;;2.47;2.00;;;3.50;99.90;;;;;;5085533;28;20253;-81
2022/02/01 12:05:32;;;;;;;7.72;2.15;;;3.40;99.90;;;;;;5084079;28;20690;-81
2022/02/01 12:08:04;;;;;;;1.88;1.10;;;3.40;99.90;;;;;;5084449;28;20211;-80
2022/02/01 12:10:32;;;;;;;1.17;1.08;;;3.40;99.90;;;;;;5083955;28;20216;-81
2022/02/01 12:13:01;;;;;;;1.05;1.02;;;3.50;99.90;;;;;;5082125;28;20269;-79
2022/02/01 12:15:33;;;;;;;1.27;0.95;;;3.40;99.90;;;;;;5080487;28;20207;-83
2022/02/01 12:18:16;;;;;;;1.33;1.20;;;3.50;99.90;;;;;;5076788;28;20211;-82
2022/02/01 12:20:45;;;;;;;2.55;1.08;;;3.40;99.90;;;;;;5081956;28;20193;-82
2022/02/01 12:23:21;;;;;;;2.70;1.30;;;3.30;99.90;;;;;;5082605;28;20221;-81
2022/02/01 12:25:48;;;;;;;6.10;2.28;;;3.40;99.90;;;;;;5083002;28;20200;-82
2022/02/01 12:28:16;;;;;;;0.95;0.88;;;3.40;99.90;;;;;;5083880;28;20203;-82
2022/02/01 12:30:45;;;;;;;1.75;1.25;;;3.40;99.90;;;;;;5081963;28;20675;-80
2022/02/01 12:33:18;;;;;;;3.38;1.50;;;3.30;99.90;;;;;;5082707;28;20233;-81
2022/02/01 12:35:45;;;;;;;1.98;1.50;;;3.40;99.90;;;;;;5082138;28;20200;-81
2022/02/01 12:38:18;;;;;;;1.63;1.50;;;3.50;99.90;;;;;;5079552;28;20220;-80
2022/02/01 12:40:45;;;;;;;3.92;2.35;;;3.50;99.90;;;;;;5079582;28;20205;-81
2022/02/01 12:43:16;;;;;;;2.67;1.55;;;3.50;99.90;;;;;;5079635;28;20227;-79
2022/02/01 12:45:56;;;;;;;4.43;3.65;;;3.60;99.90;;;;;;5083529;28;20215;-80
2022/02/01 12:48:24;;;;;;;1.60;1.40;;;3.50;99.90;;;;;;5078595;28;20201;-80
2022/02/01 12:50:59;;;;;;;1.73;1.48;;;3.50;99.90;;;;;;5082257;28;20221;-81
2022/02/01 12:53:27;;;;;;;1.33;1.20;;;3.50;99.90;;;;;;5079971;28;20235;-81
2022/02/01 12:55:54;;;;;;;2.05;1.48;;;3.50;99.90;;;;;;5075133;28;20267;-81
2022/02/01 12:58:21;;;;;;;3.70;1.77;;;3.60;99.90;;;;;;5081360;28;20201;-81
2022/02/01 13:00:49;;;;;;;5.95;1.30;;;3.70;99.90;;;;;;5083218;28;20210;-80
2022/02/01 13:03:16;;;;;;;1.25;1.15;;;3.60;99.90;;;;;;5082606;28;20228;-80
2022/02/01 13:05:44;;;;;;;8.38;1.70;;;3.60;99.90;;;;;;5076245;28;20209;-82
2022/02/01 13:14:24;;;;;;;2.17;1.25;;;3.70;99.90;;;;;;5075572;28;20234;-82
2022/02/01 13:16:46;;;;;;;1.50;1.33;;;3.80;99.90;;;;;;5076253;28;20514;-82
2022/02/01 13:22:10;;;;;;;3.85;1.42;;;3.80;99.90;;;;;;5081717;28;20199;-81
2022/02/01 13:24:37;;;;;;;3.30;1.30;;;3.70;99.90;;;;;;5078276;28;20228;-83
2022/02/01 13:27:04;;;;;;;1.00;1.00;;;3.80;99.90;;;;;;5074341;28;20211;-83
2022/02/01 13:29:31;;;;;;;1.40;1.30;;;3.80;99.90;;;;;;5079039;28;20208;-83
2022/02/01 13:31:58;;;;;;;1.90;1.20;;;3.80;99.90;;;;;;5079894;28;20272;-81
2022/02/01 13:34:28;;;;;;;1.48;1.38;;;3.70;99.90;;;;;;5083872;28;20239;-81
2022/02/01 13:36:57;;;;;;;1.23;1.13;;;3.70;99.90;;;;;;5083463;28;20282;-82
2022/02/01 13:39:27;;;;;;;1.20;1.02;;;3.60;99.90;;;;;;5085538;28;20205;-83
2022/02/01 13:41:58;;;;;;;1.73;1.63;;;3.50;99.90;;;;;;5073836;28;20202;-80
2022/02/01 13:44:25;;;;;;;1.17;1.17;;;3.40;99.90;;;;;;5079746;28;20244;-80
2022/02/01 13:47:01;;;;;;;2.42;1.30;;;3.20;99.90;;;;;;5077881;28;20204;-81
2022/02/01 13:49:28;;;;;;;3.92;1.45;;;3.20;99.90;;;;;;5079654;28;20206;-82
2022/02/01 13:51:55;;;;;;;2.42;1.40;;;3.10;99.90;;;;;;5083239;28;20215;-81
2022/02/01 13:54:22;;;;;;;1.25;1.17;;;3.10;99.90;;;;;;5084949;28;20238;-81
2022/02/01 13:56:53;;;;;;;1.45;1.40;;;3.00;99.90;;;;;;5086929;28;20586;-81
2022/02/01 13:59:22;;;;;;;1.38;1.25;;;2.90;99.90;;;;;;5083767;28;20215;-82
2022/02/01 14:02:00;;;;;;;1.77;1.48;;;2.90;99.90;;;;;;5081506;28;20297;-80
2022/02/01 14:04:31;;;;;;;1.58;1.48;;;3.00;99.90;;;;;;5082675;28;20245;-81
2022/02/01 14:07:08;;;;;;;12.27;3.78;;;3.00;99.90;;;;;;5086950;28;20626;-81
2022/02/01 14:09:50;;;;;;;1.75;1.63;;;2.90;99.90;;;;;;5087198;28;20197;-81
2022/02/01 14:12:48;;;;;;;6.18;2.10;;;3.00;99.90;;;;;;5087045;28;20211;-82
2022/02/01 14:26:40;;;;;;;2.95;2.08;;;2.90;99.90;;;;;;5058445;28;20234;-81